• Join FlightAware (Why Join?)
  • Login
  • US Flag 
08:04AM EDT


 

Airport Tracker/Info


-or-


 

Live Flight TrackerFlight Track Log ✈ N525SK ✈ 10-May-2013 ✈ KAPF - 05C

Flight Track Log - Related Links

Times and Time Zones

All times are in EDT time to prevent confusion due to time zone crossing. See the N525SK flight status page for this flight to view local times or setup timezone preferences in your user account.

Time Position Orientation Groundspeed Altitude Reporting Facility
EDT Latitude Longitude Course Direction KTS MPH feet Rate Location/Type
11:15AM 26.1842 -81.6950 354° North 194 223 6,400  Level Miami Center
11:17AM 26.2714 -81.7078 353° North 158 182 10,300 1,860 Climbing Miami Center
11:18AM 26.3131 -81.7142 352° North 153 176 12,000 1,560 Climbing Miami Center
11:19AM 26.5666 -81.8167 354° North  Level FlightAware Approximate
11:19AM 26.3567 -81.7158 358° North 153 176 13,500  Level Miami Center
11:20AM 26.6361 -81.8244 354° North  Level FlightAware Approximate
11:20AM 26.3983 -81.7222 352° North 153 176 15,100  Level Miami Center
11:21AM 26.4378 -81.7308 349° North 148 170 16,300 1,080 Climbing Miami Center
11:22AM 26.4708 -81.7392 347° North 143 165 17,300 1,140 Climbing Miami Center
11:23AM 26.5186 -81.7458 353° North 143 165 18,600 1,200 Climbing Miami Center
11:24AM 26.5642 -81.7592 345° North 149 171 19,700 1,140 Climbing Miami Center
11:25AM 26.6119 -81.7658 353° North 160 184 20,900 1,080 Climbing Miami Center
11:26AM 26.6533 -81.7722 352° North 160 184 21,900 1,020 Climbing Miami Center
11:27AM 26.7011 -81.7789 353° North 160 184 23,000 900 Climbing Miami Center
11:28AM 26.7447 -81.7900 347° North 160 184 23,800 780 Climbing Miami Center
11:29AM 26.7903 -81.7989 350° North 160 184 24,600 540 Climbing Miami Center
11:30AM 26.8422 -81.8058 353° North 166 191 24,900 240 Climbing Miami Center
11:31AM 26.8961 -81.8175 349° North 178 205 25,100 540 Climbing Miami Center
11:32AM 26.9522 -81.8269 351° North 192 221 26,000 780 Climbing Miami Center
11:33AM 27.0061 -81.8361 351° North 198 228 26,700 660 Climbing Miami Center
11:34AM 27.0600 -81.8453 351° North 193 222 27,400 600 Climbing Miami Center
11:35AM 27.1056 -81.8544 350° North 188 216 27,900 240 Climbing Miami Center
11:36AM 27.1617 -81.8614 354° North 188 216 27,900  Level Miami Center
11:37AM 27.2281 -81.8736 351° North 203 234 27,900  Level Miami Center
11:38AM 27.2903 -81.8856 350° North 227 261 27,900  Level Miami Center
11:39AM 27.3547 -81.8978 350° North 232 267 27,900  Level Miami Center
11:40AM 27.4125 -81.9097 350° North 238 274 27,900  Level Miami Center
11:41AM 27.4667 -81.9167 354° North 238 274 27,900  Level Miami Center
11:42AM 27.5517 -81.9322 351° North 238 274 27,900  Level Miami Center
11:43AM 27.6181 -81.9469 349° North 238 274 27,900  Level Miami Center
11:45AM 27.7336 -81.9689 350° North 237 273 27,900  Level Jacksonville Center
11:46AM 27.8003 -81.9778 353° North 238 274 27,900  Level Jacksonville Center
11:47AM 27.8650 -81.9911 350° North 238 274 27,900  Level Jacksonville Center
11:48AM 27.9300 -82.0047 350° North 238 274 27,900  Level Jacksonville Center
11:49AM 27.9947 -82.0158 351° North 238 274 27,900  Level Jacksonville Center
11:50AM 28.0533 -82.0553 329° Northwest 238 274 27,900  Level Jacksonville Center
11:51AM 28.1100 -82.0925 330° Northwest 238 274 27,900  Level Jacksonville Center
11:52AM 28.1644 -82.1275 330° Northwest 243 280 27,900  Level Jacksonville Center
11:53AM 28.2231 -82.1647 331° Northwest 243 280 27,900  Level Jacksonville Center
11:54AM 28.2817 -82.1994 332° Northwest 243 280 27,900  Level Jacksonville Center
11:55AM 28.3403 -82.2369 331° Northwest 243 280 27,900  Level Jacksonville Center
11:56AM 28.3989 -82.2767 329° Northwest 243 280 27,900  Level Jacksonville Center
11:57AM 28.4594 -82.3117 333° Northwest 243 280 27,900  Level Jacksonville Center
11:58AM 28.5181 -82.3517 329° Northwest 248 285 27,900  Level Jacksonville Center
11:59AM 28.5767 -82.3889 331° Northwest 248 285 27,900  Level Jacksonville Center
12:00PM 28.6375 -82.4289 330° Northwest 248 285 27,900  Level Jacksonville Center
12:01PM 28.7003 -82.4689 331° Northwest 243 280 27,900  Level Jacksonville Center
12:02PM 28.7628 -82.5064 332° Northwest 243 280 27,900  Level Jacksonville Center
12:03PM 28.8214 -82.5442 331° Northwest 248 285 27,900  Level Jacksonville Center
12:04PM 28.8800 -82.5844 329° Northwest 248 285 27,900  Level Jacksonville Center
12:05PM 28.9406 -82.6219 332° Northwest 248 285 27,900  Level Jacksonville Center
12:06PM 29.0011 -82.6622 330° Northwest 248 285 27,900  Level Jacksonville Center
12:07PM 29.0617 -82.7003 331° Northwest 248 285 27,900  Level Jacksonville Center
12:08PM 29.1225 -82.7406 330° Northwest 248 285 27,900  Level Jacksonville Center
12:09PM 29.1831 -82.7783 331° Northwest 248 285 27,900  Level Jacksonville Center
12:10PM 29.2436 -82.8189 330° Northwest 248 285 27,900  Level Jacksonville Center
12:11PM 29.3042 -82.8569 331° Northwest 248 285 27,900  Level Jacksonville Center
12:12PM 29.3647 -82.8972 330° Northwest 248 285 27,900  Level Jacksonville Center
12:13PM 29.4253 -82.9378 330° Northwest 248 285 27,900  Level Jacksonville Center
12:14PM 29.4878 -82.9783 331° Northwest 248 285 27,900  Level Jacksonville Center
12:15PM 29.5483 -83.0167 331° Northwest 258 297 27,900  Level Jacksonville Center
12:16PM 29.6108 -83.0550 332° Northwest 258 297 27,900  Level Jacksonville Center
12:17PM 29.6797 -83.0767 345° North 252 290 27,900  Level Jacksonville Center
12:18PM 29.7486 -83.0958 346° North 252 290 27,900  Level Jacksonville Center
12:19PM 29.8194 -83.1200 344° North 252 290 27,900  Level Jacksonville Center
12:20PM 29.8883 -83.1392 346° North 258 297 27,900  Level Jacksonville Center
12:21PM 29.9594 -83.1633 344° North 258 297 27,900  Level Jacksonville Center
12:22PM 30.0303 -83.1853 345° North 258 297 27,900  Level Jacksonville Center
12:23PM 30.0992 -83.2072 345° North 258 297 27,900  Level Jacksonville Center
12:24PM 30.1658 -83.2289 344° North 258 297 27,900  Level Jacksonville Center
12:25PM 30.2325 -83.2483 346° North 258 297 27,900  Level Jacksonville Center
12:26PM 30.2994 -83.2703 344° North 253 291 27,900  Level Jacksonville Center
12:27PM 30.3661 -83.2922 344° North 247 284 27,900  Level Jacksonville Center
12:28PM 30.4328 -83.3142 344° North 242 278 27,900  Level Jacksonville Center
12:29PM 30.5017 -83.3361 345° North 242 278 27,900  Level Jacksonville Center
12:30PM 30.5725 -83.3583 345° North 242 278 27,900  Level Jacksonville Center
12:31PM 30.6394 -83.3803 344° North 242 278 27,900  Level Jacksonville Center
12:32PM 30.7081 -83.4025 344° North 242 278 27,900  Level Jacksonville Center
12:33PM 30.7792 -83.4222 347° North 242 278 27,900  Level Jacksonville Center
12:34PM 30.8458 -83.4467 343° North 247 284 27,900  Level Jacksonville Center
12:35PM 30.9144 -83.4689 344° North 247 284 27,900  Level Jacksonville Center
12:36PM 30.9897 -83.4936 344° North 247 284 27,900  Level Jacksonville Center
12:37PM 31.0583 -83.5158 344° North 247 284 27,900  Level Jacksonville Center
12:38PM 31.1272 -83.5358 346° North 247 284 27,900  Level Jacksonville Center
12:39PM 31.1939 -83.5581 344° North 247 284 27,900  Level Jacksonville Center
12:41PM 31.3847 -83.6231 344° North 243 280 28,000  Climbing Atlanta Center
12:42PM 31.4539 -83.6444 345° North 243 280 28,000  Level Atlanta Center
12:43PM 31.5228 -83.6686 343° North 243 280 28,000  Level Atlanta Center
12:44PM 31.5917 -83.6878 347° North 243 280 28,000  Level Atlanta Center
12:45PM 31.6647 -83.7094 346° North 248 285 28,000  Level Atlanta Center
12:46PM 31.7378 -83.7361 343° North 255 293 28,000  Level Atlanta Center
12:47PM 31.8111 -83.7553 347° North 266 306 28,000  Level Atlanta Center
12:48PM 31.8819 -83.7772 345° North 266 306 28,000  Level Atlanta Center
12:49PM 31.9508 -83.8014 343° North 261 300 28,000  Level Atlanta Center
12:50PM 32.0219 -83.8258 344° North 261 300 28,000  Level Atlanta Center
12:51PM 32.0867 -83.8647 333° Northwest 261 300 28,000  Level Atlanta Center
12:52PM 32.1494 -83.9039 332° Northwest 261 300 28,000  Level Atlanta Center
12:53PM 32.2161 -83.9431 334° Northwest 261 300 28,000  Level Atlanta Center
12:54PM 32.2789 -83.9847 331° Northwest 261 300 28,000  Level Atlanta Center
12:55PM 32.3456 -84.0242 333° Northwest 261 300 28,000  Level Atlanta Center
12:56PM 32.4083 -84.0633 332° Northwest 261 300 28,000  Level Atlanta Center
12:57PM 32.4750 -84.1053 332° Northwest 261 300 28,000  Level Atlanta Center
12:58PM 32.5378 -84.1447 332° Northwest 261 300 28,000  Level Atlanta Center
12:59PM 32.6044 -84.1892 331° Northwest 261 300 28,000  Level Atlanta Center
01:00PM 32.6692 -84.2264 334° Northwest 261 300 28,000  Level Atlanta Center
01:01PM 32.7358 -84.2733 329° Northwest 261 300 28,000  Level Atlanta Center
01:02PM 32.8044 -84.3131 334° Northwest 266 306 28,000  Level Atlanta Center
01:03PM 32.8714 -84.3506 335° Northwest 266 306 28,000  Level Atlanta Center
01:04PM 32.9339 -84.3903 332° Northwest 259 298 28,000  Level Atlanta Center
01:05PM 32.9983 -84.4350 330° Northwest 264 304 28,000  Level Atlanta Center
01:06PM 33.0567 -84.4725 332° Northwest 264 304 28,000  Level Atlanta Center
01:07PM 33.1233 -84.5125 333° Northwest 258 297 28,000  Level Atlanta Center
01:08PM 33.1878 -84.5528 332° Northwest 258 297 28,000  Level Atlanta Center
01:09PM 33.2525 -84.5953 331° Northwest 263 303 28,000  Level Atlanta Center
01:10PM 33.3147 -84.6353 332° Northwest 256 295 28,000  Level Atlanta Center
01:12PM 33.4481 -84.7208 332° Northwest 256 295 28,000  Level Atlanta Center
01:13PM 33.5103 -84.7589 333° Northwest 246 283 28,000  Level Atlanta Center
01:14PM 33.5706 -84.7992 331° Northwest 246 283 28,000  Level Atlanta Center
01:15PM 33.6289 -84.8347 333° Northwest 252 290 28,000  Level Atlanta Center
01:16PM 33.6933 -84.8778 331° Northwest 246 283 28,000  Level Atlanta Center
01:17PM 33.7536 -84.9158 332° Northwest 246 283 28,000  Level Atlanta Center
01:18PM 33.8158 -84.9539 333° Northwest 246 283 28,000  Level Atlanta Center
01:19PM 33.8719 -84.9919 331° Northwest 246 283 28,000  Level Atlanta Center
01:20PM 33.9300 -85.0278 333° Northwest 246 283 28,000  Level Atlanta Center
01:21PM 33.9903 -85.0661 332° Northwest 246 283 28,000  Level Atlanta Center
01:22PM 34.0506 -85.1044 332° Northwest 246 283 28,000  Level Atlanta Center
01:23PM 34.1108 -85.1428 332° Northwest 246 283 28,000  Level Atlanta Center
01:24PM 34.1750 -85.1836 332° Northwest 246 283 28,000  Level Atlanta Center
01:25PM 34.2331 -85.2222 331° Northwest 246 283 28,000  Level Atlanta Center
01:26PM 34.2911 -85.2633 330° Northwest 246 283 28,000  Level Atlanta Center
01:27PM 34.3514 -85.2994 334° Northwest 246 283 28,000  Level Atlanta Center
01:28PM 34.4031 -85.3353 330° Northwest 246 283 28,000  Level Atlanta Center
01:29PM 34.4611 -85.3742 331° Northwest 246 283 28,000  Level Atlanta Center
01:30PM 34.5214 -85.4103 334° Northwest 246 283 28,000  Level Atlanta Center
01:31PM 34.5792 -85.4492 331° Northwest 246 283 28,000  Level Atlanta Center
01:32PM 34.6372 -85.4878 331° Northwest 246 283 28,000  Level Atlanta Center
01:33PM 34.6953 -85.5269 331° Northwest 246 283 28,000  Level Atlanta Center
01:34PM 34.7553 -85.5658 332° Northwest 246 283 28,000  Level Atlanta Center
01:35PM 34.8153 -85.6047 332° Northwest 246 283 28,000  Level Atlanta Center
01:36PM 34.8753 -85.6439 332° Northwest 246 283 28,000  Level Atlanta Center
01:37PM 34.9333 -85.6831 331° Northwest 246 283 28,000  Level Atlanta Center
01:38PM 34.9911 -85.7222 331° Northwest 246 283 28,000  Level Atlanta Center
01:39PM 35.0511 -85.7589 333° Northwest 246 283 28,000  Level Atlanta Center
01:40PM 35.1089 -85.8008 329° Northwest 246 283 28,000  Level Atlanta Center
01:41PM 35.1689 -85.8375 333° Northwest 246 283 28,000  Level Atlanta Center
01:44PM 35.2975 -85.9281 330° Northwest 251 289 28,000  Level Memphis Center
01:45PM 35.3572 -85.9631 334° Northwest 245 282 28,000  Level Memphis Center
01:46PM 35.4128 -86.0058 328° Northwest 240 276 28,000  Level Memphis Center
01:47PM 35.4703 -86.0411 333° Northwest 235 270 28,000  Level Memphis Center
01:48PM 35.5281 -86.0814 330° Northwest 235 270 28,000  Level Memphis Center
01:49PM 35.5836 -86.1194 331° Northwest 235 270 28,000  Level Memphis Center
01:50PM 35.6369 -86.1550 332° Northwest 235 270 28,000  Level Memphis Center
01:51PM 35.6947 -86.1956 330° Northwest 235 270 28,000  Level Memphis Center
01:52PM 35.7522 -86.2336 332° Northwest 235 270 28,000  Level Memphis Center
01:53PM 35.8078 -86.2717 331° Northwest 235 270 28,000  Level Memphis Center
01:54PM 35.8717 -86.3147 331° Northwest 230 265 28,000  Level Memphis Center
01:55PM 35.9272 -86.3556 329° Northwest 230 265 28,000  Level Memphis Center
01:56PM 35.9825 -86.3939 331° Northwest 230 265 28,000  Level Memphis Center
01:57PM 36.0358 -86.4297 331° Northwest 230 265 28,000  Level Memphis Center
01:58PM 36.0933 -86.4681 332° Northwest 230 265 28,000  Level Memphis Center
01:59PM 36.1489 -86.5067 331° Northwest 230 265 28,000  Level Memphis Center
02:00PM 36.2083 -86.5450 333° Northwest 230 265 28,000  Level Memphis Center
02:01PM 36.2636 -86.5836 331° Northwest 230 265 28,000  Level Memphis Center
02:02PM 36.3211 -86.6222 332° Northwest 235 270 28,000  Level Memphis Center
02:03PM 36.3786 -86.6581 333° Northwest 235 270 28,000  Level Memphis Center
02:04PM 36.4361 -86.6994 330° Northwest 235 270 28,000  Level Memphis Center
02:05PM 36.4894 -86.7408 328° Northwest 230 265 28,000  Level Memphis Center
02:06PM 36.5425 -86.7772 331° Northwest 230 265 28,000  Level Memphis Center
02:07PM 36.5978 -86.8161 331° Northwest 230 265 28,000  Level Memphis Center
02:08PM 36.6572 -86.8522 334° Northwest 236 272 28,000  Level Memphis Center
02:09PM 36.7083 -86.8861 332° Northwest 231 266 28,000  Level Memphis Center
02:10PM 36.7614 -86.9281 328° Northwest 231 266 28,000  Level Memphis Center
02:11PM 36.8189 -86.9669 332° Northwest 231 266 28,000  Level Memphis Center
02:12PM 36.8783 -87.0061 332° Northwest 231 266 28,000  Level Memphis Center
02:14PM 37.0178 -87.0908 334° Northwest 241 277 28,000  Level Indianapolis Center
02:15PM 37.0886 -87.1008 354° North 260 299 28,000  Level Indianapolis Center
02:16PM 37.1622 -87.1064 357° North 262 302 28,000  Level Indianapolis Center
02:17PM 37.2361 -87.1094 358° North 261 300 28,000  Level Indianapolis Center
02:18PM 37.3097 -87.1139 357° North 260 299 28,000  Level Indianapolis Center
02:19PM 37.3864 -87.1183 357° North 269 310 28,000  Level Indianapolis Center
02:20PM 37.4636 -87.1228 357° North 274 315 28,000  Level Indianapolis Center
02:21PM 37.5414 -87.1292 356° North 275 316 28,000  Level Indianapolis Center
02:22PM 37.6194 -87.1342 357° North 278 320 28,000  Level Indianapolis Center
02:23PM 37.7114 -87.1403 357° North 274 315 28,000  Level Indianapolis Center
02:24PM 37.7886 -87.1450 357° North 276 318 28,000  Level Indianapolis Center
02:25PM 37.8658 -87.1494 357° North 278 320 28,000  Level Indianapolis Center
02:26PM 37.9414 -87.1556 356° North 272 313 28,000  Level Indianapolis Center
02:27PM 38.0183 -87.1600 357° North 274 315 28,000  Level Indianapolis Center
02:28PM 38.0956 -87.1658 357° North 273 314 28,000  Level Indianapolis Center
02:29PM 38.1733 -87.1711 357° North 274 315 28,000  Level Indianapolis Center
02:30PM 38.2522 -87.1753 358° North 278 320 28,000  Level Indianapolis Center
02:31PM 38.3314 -87.1781 358° North 276 318 28,000  Level Indianapolis Center
02:32PM 38.4119 -87.1861 356° North 281 323 28,000  Level Indianapolis Center
02:33PM 38.4894 -87.1908 357° North 277 319 28,000  Level Indianapolis Center
02:35PM 38.5675 -87.1964 357° North 277 319 28,000  Level Indianapolis Center
02:36PM 38.6617 -87.2019 357° North 279 321 28,000  Level Indianapolis Center
02:37PM 38.7397 -87.2072 357° North 280 322 28,000  Level Indianapolis Center
02:38PM 38.8178 -87.2117 357° North 279 321 28,000  Level Indianapolis Center
02:39PM 38.8964 -87.2169 357° North 282 325 28,000  Level Indianapolis Center
02:40PM 38.9744 -87.2231 357° North 281 323 28,000  Level Indianapolis Center
02:41PM 39.0514 -87.2278 357° North 277 319 28,000  Level Indianapolis Center
02:42PM 39.1361 -87.2336 357° North 275 316 28,000 -300 Level Indianapolis Center
02:43PM 39.2114 -87.2372 358° North 273 314 27,500 -360 Descending Indianapolis Center
02:45PM 39.3706 -87.2494 357° North 282 325 27,000 -300 Descending Indianapolis Center
02:46PM 39.4469 -87.2536 358° North 275 316 26,700 -780 Descending Indianapolis Center
02:47PM 39.5453 -87.2597 357° North 293 337 25,500 -1,080 Descending Indianapolis Center
02:48PM 39.6314 -87.2667 356° North 306 352 24,500 -1,020 Descending Indianapolis Center
02:49PM 39.7147 -87.2722 357° North 302 348 23,500 -1,020 Descending Indianapolis Center
02:50PM 39.7978 -87.2775 357° North 299 344 22,500 -1,020 Descending Indianapolis Center
02:51PM 39.8806 -87.2825 357° North 298 343 21,500 -1,020 Descending Indianapolis Center
02:52PM 39.9617 -87.2889 357° North 293 337 20,500 -1,080 Descending Indianapolis Center
02:53PM 40.0592 -87.2964 357° North 292 336 19,300 -1,140 Descending Indianapolis Center
02:54PM 40.1369 -87.2994 358° North 284 327 18,200 -1,320 Descending Indianapolis Center
02:55PM 40.2147 -87.3064 356° North 281 323 16,600 -1,380 Descending Indianapolis Center
02:56PM 40.2931 -87.3111 357° North 280 322 15,300 -1,500 Descending Chicago Center
02:57PM 40.3836 -87.3175 357° North 273 314 13,500 -1,500 Descending Chicago Center
02:58PM 40.4536 -87.3225 357° North 269 310 12,200 -1,260 Descending Chicago Center
02:59PM 40.5264 -87.3269 357° North 264 304 10,900 -660 Descending Chicago Center
03:00PM 40.6042 -87.3339 356° North 234 269 10,900  Level Chicago Center
03:01PM 40.6597 -87.3386 356° North 208 239 10,900  Level Chicago Center
03:02PM 40.7172 -87.3414 358° North 206 237 10,900  Level Chicago Center
03:04PM 40.7733 -87.3461 356° North 205 236 10,900  Level Chicago Center
03:05PM 40.8286 -87.3500 357° North 202 232 10,900 -300 Level Chicago Center
03:06PM 40.8961 -87.3550 357° North 204 235 10,300 -900 Descending Chicago Center
03:07PM 40.9614 -87.3578 358° North 231 266 9,100 -1,140 Descending Chicago Center
03:08PM 41.0278 -87.3633 356° North 239 275 8,000 -1,140 Descending Chicago Center
03:09PM 41.0925 -87.3672 357° North 235 270 6,800 -1,200 Descending Chicago Center
03:10PM 41.1542 -87.3722 357° North 231 266 5,600 -1,320 Descending Chicago Center
03:11PM 41.2272 -87.3786 356° North 225 259 4,100 -780 Descending Chicago Center
03:12PM 41.2853 -87.3828 357° North 220 253 4,000 -60 Descending Chicago Center
03:13PM 41.3333 -87.3861 357° North 200 230 4,000  Level Chicago Center
03:14PM 41.3631 -87.4186 321° Northwest 166 191 4,000  Level Chicago Center
03:15PM 41.3928 -87.4561 317° Northwest 152 175 4,000  Level Chicago Center
03:16PM 41.4258 -87.4983 316° Northwest 145 167 4,000 -300 Level Chicago Center
03:17PM 41.4542 -87.5353 316° Northwest 143 165 3,400 -540 Descending Chicago Center
03:18PM 41.4742 -87.5872 297° West 165 190 3,000 -420 Descending Chicago Center
03:19PM 41.4761 -87.6511 272° West 171 197 2,600 -300 Descending Chicago Center
03:20PM 41.4783 -87.7125 273° West 170 196 2,500 -60 Descending Chicago Center
03:21PM 41.4919 -87.7217 333° Northwest 165 190 2,500 -60 Level Chicago Center
03:22PM 41.4783 -87.6686 109° East 156 180 2,400 -240 Descending Chicago Center
03:23PM 41.4917 -87.6189 70° East 148 170 2,100 -180 Descending Chicago Center
03:24PM 41.4981 -87.5742 79° East 136 157 2,100  Level Chicago Center
03:25PM 41.5025 -87.5336 82° East 123 142 2,100 -240 Level Chicago Center
03:26PM 41.5083 -87.4933 79° East 116 133 1,700 -480 Descending Chicago Center
03:27PM 41.5156 -87.4414 79° East 117 135 1,200 -300 Descending Chicago Center
03:28PM 41.5211 -87.3997 80° East 117 135 1,100 -120 Descending Chicago Center